Terminal Aerodrome Forecast
Issued by NWS Wilmington, OH

Home | Current Version | Previous Version | Text Only | Print | Product List | Glossary On
Versions: 1 2 3 4 5 6 7 8 9 10 11 12 13 14 15 16 17 18 19 20 21 22
000
FTUS41 KILN 211100
TAFCVG
TAF
KCVG 211120Z 2112/2218 21003KT P6SM BKN200
     FM211500 23010KT P6SM FEW070 BKN150
     FM220200 23008KT P6SM VCSH SCT050 OVC100
     FM220600 25008KT P6SM -SHRA SCT012 OVC050
     FM221100 31012KT P6SM OVC018
     FM221400 33015G25KT P6SM SCT035=

USA.gov is the U.S. government's official web portal to all federal, state and local government web resources and services.